Time;durP1;ratioP1;P1;durP2;ratioP2;P2;SDS_P1;SDS_P2;PMS_P1;PMS_P2;Temp;Humidity;BMP_temperature;BMP_pressure;BME280_temperature;BME280_humidity;BME280_pressure;Samples;Min_cycle;Max_cycle;Signal;HPM_P1;HPM_P2
2022/09/25 00:01:08;;;;;;;3.47;1.67;;;17.70;99.90;;;;;;5002255;28;20197;-65
2022/09/25 00:03:35;;;;;;;3.43;1.60;;;17.70;99.90;;;;;;4992471;28;20232;-65
2022/09/25 00:06:28;;;;;;;3.67;1.50;;;17.70;99.90;;;;;;5010166;28;20192;-65
2022/09/25 00:08:55;;;;;;;2.97;1.67;;;17.70;99.90;;;;;;4998551;28;20681;-65
2022/09/25 00:11:31;;;;;;;3.23;1.60;;;17.80;99.90;;;;;;4994360;28;20188;-65
2022/09/25 00:14:00;;;;;;;8.00;1.60;;;17.80;99.90;;;;;;5010073;28;20204;-65
2022/09/25 00:16:31;;;;;;;5.93;1.83;;;17.70;99.90;;;;;;5009073;28;20868;-66
2022/09/25 00:21:51;;;;;;;3.43;1.43;;;17.60;99.90;;;;;;5007983;28;20193;-68
2022/09/25 00:24:19;;;;;;;5.53;1.60;;;17.60;99.90;;;;;;5007457;28;20681;-67
2022/09/25 00:26:45;;;;;;;7.40;1.73;;;17.60;99.90;;;;;;5018268;28;20196;-65
2022/09/25 00:29:19;;;;;;;3.10;1.70;;;17.60;99.90;;;;;;5012210;28;20191;-67
2022/09/25 00:31:45;;;;;;;4.33;1.60;;;17.50;99.90;;;;;;4981064;28;20193;-67
2022/09/25 00:34:12;;;;;;;3.90;1.60;;;17.50;99.90;;;;;;5008849;28;20193;-68
2022/09/25 00:36:41;;;;;;;4.40;1.60;;;17.50;99.90;;;;;;5004156;28;20224;-67
2022/09/25 00:39:07;;;;;;;3.23;1.80;;;17.50;99.90;;;;;;5008837;28;20197;-67
2022/09/25 00:41:34;;;;;;;5.30;1.63;;;17.40;99.90;;;;;;4998491;28;20228;-67
2022/09/25 00:44:03;;;;;;;5.53;1.70;;;17.40;99.90;;;;;;5019105;28;20263;-66
2022/09/25 00:46:41;;;;;;;6.63;1.80;;;17.40;99.90;;;;;;5009732;28;20185;-67
2022/09/25 00:49:24;;;;;;;5.80;1.63;;;17.30;99.90;;;;;;5009293;28;20224;-67
2022/09/25 00:52:06;;;;;;;4.97;1.80;;;17.30;99.90;;;;;;5002528;28;20223;-67
2022/09/25 00:54:57;;;;;;;3.77;1.40;;;17.20;99.90;;;;;;5010051;28;20200;-67
2022/09/25 00:57:29;;;;;;;5.93;1.70;;;17.20;99.90;;;;;;5011266;28;20313;-67
2022/09/25 01:00:06;;;;;;;4.43;1.80;;;17.20;99.90;;;;;;5008304;28;20184;-67
2022/09/25 01:02:39;;;;;;;6.10;2.03;;;17.20;99.90;;;;;;4999987;28;21709;-67
2022/09/25 01:05:11;;;;;;;4.07;1.60;;;17.10;99.90;;;;;;4994389;28;20225;-66
2022/09/25 01:07:42;;;;;;;9.60;1.73;;;17.20;99.90;;;;;;5006811;28;20550;-67
2022/09/25 01:10:09;;;;;;;3.17;1.90;;;17.10;99.90;;;;;;5012616;28;20200;-67
2022/09/25 01:12:44;;;;;;;7.23;1.73;;;17.10;99.90;;;;;;5005568;28;20185;-67
2022/09/25 01:15:18;;;;;;;5.13;1.80;;;17.10;99.90;;;;;;4998960;28;20664;-67
2022/09/25 01:17:55;;;;;;;5.30;1.83;;;17.10;99.90;;;;;;5000950;28;20199;-67
2022/09/25 01:21:08;;;;;;;4.30;1.60;;;17.10;99.90;;;;;;4994087;28;20246;-67
2022/09/25 01:24:30;;;;;;;2.87;1.40;;;17.10;99.90;;;;;;5009900;28;20228;-67
2022/09/25 01:27:27;;;;;;;5.20;1.90;;;17.10;99.90;;;;;;5000932;28;20219;-67
2022/09/25 01:30:18;;;;;;;5.23;1.40;;;17.10;99.90;;;;;;5011677;28;20193;-67
2022/09/25 01:33:14;;;;;;;3.50;1.60;;;16.90;99.90;;;;;;5008758;28;20262;-67
2022/09/25 01:35:40;;;;;;;3.87;1.40;;;16.90;99.90;;;;;;5009443;28;20191;-64
2022/09/25 01:38:24;;;;;;;5.63;1.83;;;16.90;99.90;;;;;;5011667;28;20173;-64
2022/09/25 01:41:08;;;;;;;2.37;1.47;;;16.90;99.90;;;;;;5012665;28;20270;-67
2022/09/25 01:43:52;;;;;;;4.90;1.67;;;16.90;99.90;;;;;;5001039;28;20232;-67
2022/09/25 01:46:29;;;;;;;2.83;1.53;;;16.80;99.90;;;;;;4997788;28;21028;-67
2022/09/25 01:49:18;;;;;;;8.27;1.63;;;16.60;99.90;;;;;;5008323;28;20267;-67
2022/09/25 01:51:54;;;;;;;1.97;1.40;;;16.50;99.90;;;;;;4988495;28;20520;-67
2022/09/25 01:54:40;;;;;;;2.70;1.30;;;16.50;99.90;;;;;;4991206;28;20199;-67
2022/09/25 01:57:37;;;;;;;4.30;1.90;;;16.50;99.90;;;;;;5010865;28;20181;-67
2022/09/25 02:00:12;;;;;;;4.73;1.70;;;16.40;99.90;;;;;;5006149;28;20304;-67
2022/09/25 02:02:47;;;;;;;3.37;1.57;;;16.50;99.90;;;;;;5019539;28;20701;-67
2022/09/25 02:05:54;;;;;;;2.13;1.30;;;16.40;99.90;;;;;;5004068;28;20292;-67
2022/09/25 02:08:32;;;;;;;5.87;1.80;;;16.40;99.90;;;;;;5003632;28;20232;-67
2022/09/25 02:11:06;;;;;;;5.27;1.40;;;16.30;99.90;;;;;;4982603;28;20547;-65
2022/09/25 02:14:05;;;;;;;2.90;1.47;;;16.30;99.90;;;;;;4999166;28;20199;-65
2022/09/25 02:16:42;;;;;;;4.30;1.67;;;16.30;99.90;;;;;;4978223;28;20200;-67
2022/09/25 02:22:16;;;;;;;3.47;1.50;;;16.40;99.90;;;;;;5006547;28;20184;-65
2022/09/25 02:24:59;;;;;;;5.50;1.70;;;16.40;99.90;;;;;;5010521;28;20613;-67
2022/09/25 02:27:28;;;;;;;4.70;1.40;;;16.20;99.90;;;;;;5003311;28;20207;-67
2022/09/25 02:29:57;;;;;;;2.70;1.50;;;16.20;99.90;;;;;;5010166;28;20192;-67
2022/09/25 02:32:32;;;;;;;3.67;1.20;;;16.20;99.90;;;;;;5012131;28;20207;-67
2022/09/25 02:35:00;;;;;;;4.63;1.40;;;16.30;99.90;;;;;;5006687;28;20200;-66
2022/09/25 02:37:28;;;;;;;4.47;1.27;;;16.20;99.90;;;;;;5005589;28;20193;-66
2022/09/25 02:40:00;;;;;;;3.90;1.40;;;16.20;99.90;;;;;;5006141;28;20181;-66
2022/09/25 02:43:01;;;;;;;2.67;1.50;;;16.10;99.90;;;;;;4991917;28;20220;-66
2022/09/25 02:45:36;;;;;;;2.50;1.43;;;16.10;99.90;;;;;;5009189;28;20366;-67
2022/09/25 02:48:37;;;;;;;5.03;1.57;;;16.20;99.90;;;;;;5010613;28;20192;-66
2022/09/25 02:51:33;;;;;;;4.37;1.33;;;16.20;99.90;;;;;;4999718;28;20189;-66
2022/09/25 02:55:03;;;;;;;3.70;1.40;;;16.00;99.90;;;;;;5012088;28;20192;-67
2022/09/25 02:57:52;;;;;;;3.73;1.50;;;16.00;99.90;;;;;;4948809;29;20197;-67
2022/09/25 03:00:22;;;;;;;6.77;1.70;;;16.10;99.90;;;;;;5008007;28;20215;-66
2022/09/25 03:02:58;;;;;;;4.77;1.63;;;16.10;99.90;;;;;;5010870;28;20212;-66
2022/09/25 03:05:25;;;;;;;4.67;1.70;;;16.10;99.90;;;;;;5008529;28;21115;-66
2022/09/25 03:10:39;;;;;;;4.93;1.77;;;16.10;99.90;;;;;;4994967;28;20216;-66
2022/09/25 03:13:21;;;;;;;2.40;1.60;;;16.00;99.90;;;;;;4996319;28;20205;-67
2022/09/25 03:15:58;;;;;;;3.13;1.43;;;16.00;99.90;;;;;;5011937;28;20193;-66
2022/09/25 03:18:27;;;;;;;5.90;1.53;;;16.10;99.90;;;;;;5010302;28;20185;-66
2022/09/25 03:20:54;;;;;;;5.27;2.00;;;16.10;99.90;;;;;;5010764;28;20251;-67
2022/09/25 03:23:20;;;;;;;2.77;1.63;;;16.20;99.90;;;;;;5011681;28;20224;-67
2022/09/25 03:25:48;;;;;;;3.93;1.90;;;16.20;99.90;;;;;;5019470;28;20279;-67
2022/09/25 03:28:15;;;;;;;6.63;1.90;;;16.20;99.90;;;;;;5006782;28;20189;-66
2022/09/25 03:30:41;;;;;;;1.93;1.47;;;16.10;99.90;;;;;;5006242;28;20262;-67
2022/09/25 03:33:12;;;;;;;4.43;1.90;;;16.20;99.90;;;;;;5013324;28;20616;-67
2022/09/25 03:35:39;;;;;;;3.03;1.47;;;16.20;99.90;;;;;;4993133;28;20227;-67
2022/09/25 03:38:09;;;;;;;3.47;1.50;;;16.30;99.90;;;;;;5002535;28;20658;-67
2022/09/25 03:40:35;;;;;;;3.57;1.83;;;16.30;99.90;;;;;;5008014;28;20658;-67
2022/09/25 03:43:02;;;;;;;3.03;1.70;;;16.20;99.90;;;;;;4973447;28;20212;-67
2022/09/25 03:45:28;;;;;;;2.80;1.90;;;16.20;99.90;;;;;;5009643;28;20669;-67
2022/09/25 03:47:55;;;;;;;3.63;1.57;;;16.20;99.90;;;;;;5010741;28;20226;-66
2022/09/25 03:50:24;;;;;;;4.33;1.60;;;16.20;99.90;;;;;;5012366;28;20227;-67
2022/09/25 03:52:50;;;;;;;5.07;1.70;;;16.10;99.90;;;;;;5016746;28;20196;-67
2022/09/25 03:55:16;;;;;;;4.00;1.73;;;16.10;99.90;;;;;;5008048;28;20219;-67
2022/09/25 03:57:43;;;;;;;4.50;1.57;;;16.10;99.90;;;;;;5014240;28;20315;-65
2022/09/25 04:00:10;;;;;;;5.07;1.60;;;16.10;99.90;;;;;;5004515;28;20189;-67
2022/09/25 04:02:36;;;;;;;2.93;1.40;;;16.10;99.90;;;;;;5007862;28;20212;-67
2022/09/25 04:05:03;;;;;;;2.23;1.57;;;16.10;99.90;;;;;;4976516;28;20192;-67
2022/09/25 04:07:29;;;;;;;3.83;1.57;;;16.10;99.90;;;;;;5006142;28;20192;-65
2022/09/25 04:09:55;;;;;;;3.30;1.40;;;16.10;99.90;;;;;;5004466;28;20384;-67
2022/09/25 04:12:22;;;;;;;2.73;1.37;;;16.10;99.90;;;;;;5010255;28;20181;-67
2022/09/25 04:14:48;;;;;;;4.90;1.60;;;16.20;99.90;;;;;;5009223;28;20602;-67
2022/09/25 04:17:14;;;;;;;4.93;1.43;;;16.30;99.90;;;;;;5007820;28;20240;-67
2022/09/25 04:19:40;;;;;;;1.83;1.10;;;16.50;99.90;;;;;;5010120;28;20180;-67
2022/09/25 04:22:06;;;;;;;5.17;1.43;;;16.60;99.90;;;;;;5009623;28;20231;-67
2022/09/25 04:24:49;;;;;;;5.07;1.60;;;16.80;99.90;;;;;;5008309;28;20227;-67
2022/09/25 04:27:22;;;;;;;4.70;1.30;;;16.90;99.90;;;;;;5009999;28;20833;-67
2022/09/25 04:29:49;;;;;;;2.90;1.50;;;17.00;99.90;;;;;;5012428;28;20216;-67
2022/09/25 04:35:02;;;;;;;5.67;1.40;;;17.00;99.90;;;;;;5010223;28;20173;-67
2022/09/25 04:37:29;;;;;;;1.90;1.33;;;17.00;99.90;;;;;;5005474;28;20244;-66
2022/09/25 04:39:57;;;;;;;4.60;1.50;;;17.00;99.90;;;;;;5003429;28;20185;-67
2022/09/25 04:42:24;;;;;;;2.80;1.40;;;17.00;99.90;;;;;;4995578;28;20192;-67
2022/09/25 04:44:55;;;;;;;3.67;1.50;;;17.00;99.90;;;;;;4991373;28;20201;-66
2022/09/25 04:47:24;;;;;;;4.57;1.33;;;17.00;99.90;;;;;;5003570;28;20188;-67
2022/09/25 04:49:51;;;;;;;3.47;1.30;;;17.00;99.90;;;;;;5009961;28;20193;-67
2022/09/25 04:52:19;;;;;;;3.57;1.30;;;17.00;99.90;;;;;;5009737;28;20197;-67
2022/09/25 04:54:46;;;;;;;3.37;1.27;;;17.00;99.90;;;;;;5011472;28;20196;-67
2022/09/25 04:57:20;;;;;;;5.50;1.50;;;17.10;99.90;;;;;;5010969;28;20783;-65
2022/09/25 04:59:50;;;;;;;3.30;1.60;;;17.10;99.90;;;;;;5016165;28;20188;-67
2022/09/25 05:02:17;;;;;;;2.40;1.50;;;17.20;99.90;;;;;;4999072;28;20225;-64
2022/09/25 05:04:44;;;;;;;1.80;1.10;;;17.30;99.90;;;;;;5014025;28;20246;-64
2022/09/25 05:07:10;;;;;;;3.30;1.40;;;17.30;99.90;;;;;;5015044;28;20991;-67
2022/09/25 05:09:39;;;;;;;4.33;1.40;;;17.40;99.90;;;;;;4996414;28;20279;-67
2022/09/25 05:12:06;;;;;;;2.90;1.20;;;17.50;99.90;;;;;;5001827;28;20275;-67
2022/09/25 05:14:32;;;;;;;2.33;1.47;;;17.60;99.90;;;;;;5017459;28;20195;-67
2022/09/25 05:16:58;;;;;;;4.80;1.53;;;17.70;99.90;;;;;;5003572;28;20247;-67
2022/09/25 05:19:24;;;;;;;2.63;1.40;;;17.80;99.90;;;;;;5007118;28;20271;-64
2022/09/25 05:21:54;;;;;;;1.40;1.10;;;17.80;99.90;;;;;;5014301;28;20201;-67
2022/09/25 05:24:20;;;;;;;6.50;1.67;;;17.90;99.90;;;;;;5010872;28;20244;-67
2022/09/25 05:26:47;;;;;;;2.40;1.23;;;18.00;99.90;;;;;;5018397;28;20192;-67
2022/09/25 05:29:15;;;;;;;2.57;1.20;;;18.10;99.90;;;;;;5013093;28;20643;-69
2022/09/25 05:31:45;;;;;;;4.03;1.40;;;18.20;99.90;;;;;;5012670;28;20220;-67
2022/09/25 05:34:13;;;;;;;2.77;1.63;;;18.20;99.90;;;;;;5018915;28;20207;-67
2022/09/25 05:36:39;;;;;;;2.00;1.13;;;18.20;99.90;;;;;;5004938;28;20271;-66
2022/09/25 05:39:05;;;;;;;2.93;1.50;;;18.30;99.90;;;;;;5010989;28;20220;-67
2022/09/25 05:41:33;;;;;;;5.67;1.43;;;18.30;99.90;;;;;;5002964;28;20243;-64
2022/09/25 05:44:05;;;;;;;2.40;1.47;;;18.40;99.90;;;;;;4984902;28;20682;-65
2022/09/25 05:46:35;;;;;;;1.93;1.47;;;18.40;99.90;;;;;;5011801;28;20188;-65
2022/09/25 05:49:01;;;;;;;3.30;1.30;;;18.50;99.90;;;;;;5013559;28;20191;-65
2022/09/25 05:51:28;;;;;;;4.40;1.37;;;18.60;99.90;;;;;;4991591;28;20888;-65
2022/09/25 05:53:55;;;;;;;6.90;1.70;;;18.60;99.90;;;;;;4977163;28;20189;-65
2022/09/25 05:56:23;;;;;;;3.93;1.60;;;18.70;99.90;;;;;;4995634;28;20186;-64
2022/09/25 05:58:51;;;;;;;2.70;1.43;;;18.80;99.90;;;;;;4978205;28;20188;-64
2022/09/25 06:01:18;;;;;;;2.97;1.60;;;18.90;99.90;;;;;;5018185;28;20543;-64
2022/09/25 06:03:45;;;;;;;4.57;1.57;;;18.90;99.90;;;;;;5003217;28;20220;-64
2022/09/25 06:06:12;;;;;;;3.00;1.30;;;19.00;99.90;;;;;;5016821;28;20189;-64
2022/09/25 06:08:39;;;;;;;3.47;1.67;;;19.00;99.90;;;;;;5009304;28;20195;-65
2022/09/25 06:11:07;;;;;;;4.80;1.87;;;19.10;99.90;;;;;;5010373;28;20239;-64
2022/09/25 06:13:35;;;;;;;2.43;1.37;;;19.20;99.90;;;;;;5007301;28;20216;-64
2022/09/25 06:16:13;;;;;;;3.43;1.53;;;19.20;99.90;;;;;;5012558;28;20247;-64
2022/09/25 06:18:40;;;;;;;5.70;1.50;;;19.20;99.90;;;;;;5018143;28;20276;-65
2022/09/25 06:21:07;;;;;;;6.83;1.43;;;19.30;99.90;;;;;;5014812;28;20242;-64
2022/09/25 06:23:34;;;;;;;3.40;1.47;;;19.40;99.90;;;;;;4996854;28;20273;-65
2022/09/25 06:26:08;;;;;;;3.07;1.50;;;19.40;99.90;;;;;;5005481;28;20205;-64
2022/09/25 06:28:34;;;;;;;4.70;1.63;;;19.50;99.90;;;;;;5009681;28;20177;-65
2022/09/25 06:31:05;;;;;;;3.17;1.43;;;19.60;99.90;;;;;;5012153;28;20200;-65
2022/09/25 06:33:33;;;;;;;2.70;1.47;;;19.70;99.90;;;;;;4992524;28;20181;-65
2022/09/25 06:36:01;;;;;;;1.83;1.30;;;19.70;99.90;;;;;;5007713;28;20195;-65
2022/09/25 06:38:28;;;;;;;3.20;1.40;;;19.80;99.90;;;;;;4998065;28;20197;-65
2022/09/25 06:40:54;;;;;;;2.90;1.30;;;20.00;99.90;;;;;;4992595;28;20192;-65
2022/09/25 06:43:20;;;;;;;3.30;1.50;;;20.00;99.90;;;;;;5003024;28;20291;-65
2022/09/25 06:45:48;;;;;;;2.97;1.40;;;20.20;99.90;;;;;;5006435;28;20651;-65
2022/09/25 06:48:15;;;;;;;4.67;1.50;;;20.20;99.90;;;;;;5008875;28;20546;-65
2022/09/25 06:51:33;;;;;;;3.07;1.40;;;20.20;99.90;;;;;;4975509;28;20251;-65
2022/09/25 06:53:59;;;;;;;5.03;1.60;;;20.30;99.90;;;;;;5001621;28;20783;-65
2022/09/25 06:56:29;;;;;;;2.83;1.40;;;20.30;99.90;;;;;;5004194;28;20838;-65
2022/09/25 06:58:55;;;;;;;3.33;1.50;;;20.40;99.90;;;;;;5011301;28;20199;-65
2022/09/25 07:01:22;;;;;;;3.60;1.10;;;20.60;99.90;;;;;;5017594;28;20965;-65
2022/09/25 07:03:50;;;;;;;5.23;1.37;;;20.60;99.90;;;;;;4998620;28;20308;-65
2022/09/25 07:06:25;;;;;;;2.97;1.30;;;20.70;99.90;;;;;;5008333;28;20232;-65
2022/09/25 07:08:52;;;;;;;3.13;1.30;;;20.80;99.90;;;;;;5014149;28;20271;-66
2022/09/25 07:11:21;;;;;;;5.90;1.23;;;20.90;99.90;;;;;;5013317;28;20176;-65
2022/09/25 07:13:51;;;;;;;2.78;1.45;;;21.00;99.90;;;;;;4996970;28;20211;-65
2022/09/25 07:16:19;;;;;;;2.47;1.20;;;21.10;99.90;;;;;;5009721;28;20196;-65
2022/09/25 07:18:46;;;;;;;2.73;1.30;;;21.10;99.90;;;;;;4983689;28;20221;-65
2022/09/25 07:21:16;;;;;;;1.73;1.20;;;21.20;99.90;;;;;;5004891;28;20216;-65
2022/09/25 07:23:45;;;;;;;2.67;1.30;;;21.20;99.90;;;;;;5008138;28;20204;-65
2022/09/25 07:26:22;;;;;;;2.15;1.08;;;21.30;99.90;;;;;;5007952;28;20193;-65
2022/09/25 07:29:08;;;;;;;1.83;1.20;;;21.40;99.90;;;;;;5008799;28;20247;-65
2022/09/25 07:31:36;;;;;;;3.15;1.00;;;21.50;99.90;;;;;;5007890;28;20288;-65
2022/09/25 07:34:11;;;;;;;3.05;0.90;;;21.50;99.90;;;;;;5010302;28;20193;-65
2022/09/25 07:36:41;;;;;;;3.35;1.08;;;21.70;99.90;;;;;;5005861;28;20527;-65
2022/09/25 07:39:08;;;;;;;2.22;1.00;;;21.70;99.90;;;;;;4998074;28;20224;-65
2022/09/25 07:41:35;;;;;;;3.72;1.17;;;21.80;99.90;;;;;;5006463;28;20225;-67
2022/09/25 07:44:01;;;;;;;4.80;1.20;;;21.90;99.90;;;;;;5016875;28;20212;-67
2022/09/25 07:46:30;;;;;;;4.72;1.30;;;22.00;99.90;;;;;;5009003;28;20199;-65
2022/09/25 07:48:56;;;;;;;1.80;1.02;;;22.10;99.90;;;;;;5010172;28;20665;-65
2022/09/25 07:51:25;;;;;;;3.08;0.90;;;22.20;99.90;;;;;;5001393;28;20196;-66
2022/09/25 07:53:51;;;;;;;4.93;1.02;;;22.40;98.70;;;;;;4996604;28;20189;-67
2022/09/25 07:56:19;;;;;;;1.90;1.00;;;22.70;98.90;;;;;;4983787;28;20615;-66
2022/09/25 07:58:45;;;;;;;0.95;0.80;;;22.60;98.60;;;;;;5002280;28;20234;-66
2022/09/25 08:01:13;;;;;;;1.00;0.80;;;22.70;99.00;;;;;;4992069;28;20187;-65
2022/09/25 08:03:40;;;;;;;1.70;1.10;;;22.70;98.40;;;;;;5011410;28;20213;-65
2022/09/25 08:06:12;;;;;;;1.40;0.80;;;22.90;97.80;;;;;;4998133;28;20192;-66
2022/09/25 08:08:40;;;;;;;2.75;1.13;;;23.00;98.00;;;;;;4987612;28;20192;-66
2022/09/25 08:11:13;;;;;;;3.08;1.17;;;22.90;98.90;;;;;;4982156;28;20201;-66
2022/09/25 08:13:41;;;;;;;2.65;1.20;;;23.00;97.70;;;;;;5012121;28;20224;-66
2022/09/25 08:16:15;;;;;;;2.97;0.90;;;23.10;96.80;;;;;;5007558;28;20188;-66
2022/09/25 08:18:45;;;;;;;3.78;1.23;;;23.20;97.80;;;;;;5005767;28;20305;-66
2022/09/25 08:21:14;;;;;;;1.90;0.90;;;23.20;98.00;;;;;;5006339;28;20616;-67
2022/09/25 08:23:51;;;;;;;3.25;1.10;;;23.50;98.80;;;;;;5007155;28;20235;-65
2022/09/25 08:26:21;;;;;;;3.28;1.30;;;23.80;98.70;;;;;;4979396;28;20192;-67
2022/09/25 08:28:49;;;;;;;3.78;1.02;;;23.90;98.90;;;;;;5012421;28;20192;-67
2022/09/25 08:31:15;;;;;;;4.60;1.20;;;24.30;98.80;;;;;;4986984;28;20193;-65
2022/09/25 08:33:48;;;;;;;1.95;1.20;;;24.50;99.20;;;;;;5013312;28;20193;-67
2022/09/25 08:36:16;;;;;;;3.53;1.23;;;24.40;99.20;;;;;;4992246;28;20193;-67
2022/09/25 08:38:43;;;;;;;4.30;1.35;;;24.50;98.20;;;;;;5004555;28;20686;-67
2022/09/25 08:41:30;;;;;;;2.63;1.38;;;24.50;98.60;;;;;;5010318;28;20697;-67
2022/09/25 08:44:46;;;;;;;4.03;0.98;;;24.50;98.20;;;;;;4992465;28;20259;-65
2022/09/25 08:50:22;;;;;;;3.45;1.38;;;24.80;98.00;;;;;;5003651;28;20185;-67
2022/09/25 08:53:06;;;;;;;5.25;1.40;;;25.00;99.60;;;;;;5005652;28;20654;-66
2022/09/25 08:58:43;;;;;;;6.70;1.10;;;25.10;99.30;;;;;;4996476;28;20196;-67
2022/09/25 09:01:35;;;;;;;2.67;1.30;;;25.00;99.90;;;;;;4988779;28;20188;-65
2022/09/25 09:04:23;;;;;;;4.20;1.25;;;25.30;98.70;;;;;;5000603;28;20217;-66
2022/09/25 09:10:56;;;;;;;6.13;1.70;;;25.50;97.90;;;;;;4991492;28;20189;-65
2022/09/25 09:13:56;;;;;;;6.50;1.30;;;25.50;97.90;;;;;;4977777;28;20184;-66
2022/09/25 09:16:25;;;;;;;3.72;1.45;;;25.60;97.90;;;;;;4975541;28;20239;-66
2022/09/25 09:18:55;;;;;;;2.85;1.10;;;25.60;98.20;;;;;;5003047;28;20661;-67
2022/09/25 09:22:03;;;;;;;5.07;1.60;;;25.80;98.40;;;;;;5001941;28;20957;-65
2022/09/25 09:25:04;;;;;;;3.00;1.40;;;26.10;98.40;;;;;;4987704;28;20312;-67
2022/09/25 09:28:19;;;;;;;4.35;1.30;;;26.40;97.80;;;;;;4995376;28;20180;-67
2022/09/25 09:31:12;;;;;;;4.00;1.52;;;27.00;97.30;;;;;;5012464;28;20181;-65
2022/09/25 09:34:13;;;;;;;3.75;1.80;;;27.50;96.30;;;;;;5011916;28;20188;-65
2022/09/25 09:36:51;;;;;;;6.95;1.67;;;27.80;96.20;;;;;;5012992;28;20187;-64
2022/09/25 09:39:31;;;;;;;5.97;1.67;;;27.70;96.70;;;;;;5010221;28;20197;-65
2022/09/25 09:42:24;;;;;;;5.88;1.52;;;27.70;97.10;;;;;;5014726;28;20192;-66
2022/09/25 09:45:23;;;;;;;3.90;1.58;;;27.90;97.00;;;;;;5006685;28;20741;-66
2022/09/25 09:48:32;;;;;;;5.97;1.73;;;27.90;96.90;;;;;;4987809;28;20189;-66
2022/09/25 09:51:36;;;;;;;3.88;1.58;;;28.50;98.60;;;;;;5011654;28;20184;-65
2022/09/25 09:54:16;;;;;;;5.70;1.48;;;29.10;97.60;;;;;;5011289;28;20188;-65
2022/09/25 09:56:49;;;;;;;6.32;1.70;;;28.90;97.60;;;;;;5004927;28;20256;-66
2022/09/25 09:59:23;;;;;;;3.55;1.48;;;28.60;97.90;;;;;;4977665;28;20617;-66
2022/09/25 10:02:19;;;;;;;6.22;1.40;;;28.40;98.50;;;;;;5012574;28;20188;-66
2022/09/25 10:04:49;;;;;;;4.45;1.35;;;28.50;98.90;;;;;;5008127;28;20299;-65
2022/09/25 10:07:21;;;;;;;8.73;1.55;;;28.70;98.40;;;;;;5010592;28;20191;-66
2022/09/25 10:09:53;;;;;;;9.48;1.50;;;28.70;98.20;;;;;;5011137;28;20188;-66
2022/09/25 10:12:35;;;;;;;8.45;1.70;;;28.70;98.00;;;;;;4997211;28;20247;-66
2022/09/25 10:15:16;;;;;;;6.65;1.65;;;28.60;97.90;;;;;;5012190;28;20183;-65
2022/09/25 10:17:47;;;;;;;6.97;1.80;;;28.70;97.90;;;;;;5000974;28;20184;-66
2022/09/25 10:20:20;;;;;;;5.97;1.70;;;28.90;97.70;;;;;;5006924;28;20185;-65
2022/09/25 10:22:52;;;;;;;5.90;1.75;;;29.30;97.00;;;;;;4975687;28;20201;-66
2022/09/25 10:25:37;;;;;;;5.30;1.67;;;31.30;96.90;;;;;;4991146;28;20513;-65
2022/09/25 10:28:34;;;;;;;5.25;1.85;;;30.50;96.60;;;;;;5010003;28;20547;-65
2022/09/25 10:31:04;;;;;;;4.05;1.45;;;30.00;97.00;;;;;;5004256;28;20198;-65
2022/09/25 10:33:32;;;;;;;6.05;1.60;;;29.30;97.40;;;;;;5002091;28;20185;-66
2022/09/25 10:35:59;;;;;;;6.00;1.67;;;28.80;97.10;;;;;;5011723;28;20239;-65
2022/09/25 10:38:42;;;;;;;6.55;1.60;;;28.90;97.30;;;;;;5006960;28;20189;-66
2022/09/25 10:41:18;;;;;;;5.30;1.50;;;29.10;96.30;;;;;;5007439;28;20367;-65
2022/09/25 10:43:59;;;;;;;7.05;1.60;;;29.10;96.60;;;;;;5006008;28;20299;-65
2022/09/25 10:52:18;;;;;;;4.90;1.90;;;28.40;96.70;;;;;;5006053;28;20185;-65
2022/09/25 10:54:46;;;;;;;6.15;1.60;;;28.20;97.00;;;;;;4986051;28;20196;-65
2022/09/25 10:57:32;;;;;;;2.28;1.48;;;28.20;96.20;;;;;;4978404;28;20193;-65
2022/09/25 11:00:17;;;;;;;4.10;1.70;;;28.00;95.70;;;;;;5004717;28;20195;-65
2022/09/25 11:02:47;;;;;;;3.78;1.50;;;28.10;95.90;;;;;;5010068;28;20189;-65
2022/09/25 11:05:20;;;;;;;4.80;1.80;;;28.00;96.10;;;;;;5010558;28;20189;-65
2022/09/25 11:07:54;;;;;;;3.58;1.60;;;28.10;95.60;;;;;;5007110;28;20189;-66
2022/09/25 11:10:32;;;;;;;3.83;1.45;;;28.10;96.00;;;;;;4996111;28;20999;-65
2022/09/25 11:13:07;;;;;;;3.72;1.38;;;28.20;95.50;;;;;;5008032;28;20203;-65
2022/09/25 11:15:37;;;;;;;4.15;1.55;;;28.10;95.00;;;;;;5010749;28;20299;-65
2022/09/25 11:18:05;;;;;;;3.03;1.38;;;28.10;95.00;;;;;;5009036;28;20231;-65
2022/09/25 11:20:31;;;;;;;4.13;1.52;;;28.10;95.00;;;;;;5003249;28;20211;-66
2022/09/25 11:23:32;;;;;;;2.22;1.27;;;28.10;94.50;;;;;;5005331;28;20208;-66
2022/09/25 11:26:21;;;;;;;4.20;1.30;;;28.00;94.50;;;;;;4991618;28;20291;-66
2022/09/25 11:29:03;;;;;;;8.18;1.40;;;28.00;94.00;;;;;;4998499;28;20758;-66
2022/09/25 11:31:40;;;;;;;2.97;1.50;;;28.00;93.60;;;;;;5010866;28;20668;-66
2022/09/25 11:34:25;;;;;;;4.00;1.40;;;28.00;93.50;;;;;;5010726;28;20184;-66
2022/09/25 11:37:36;;;;;;;2.22;1.25;;;28.00;94.00;;;;;;5010370;28;20200;-66
2022/09/25 11:43:11;;;;;;;4.05;1.30;;;28.00;93.50;;;;;;5004154;28;20200;-66
2022/09/25 11:45:54;;;;;;;3.40;1.60;;;28.00;93.50;;;;;;5010758;28;20183;-66
2022/09/25 11:48:36;;;;;;;4.85;1.67;;;28.00;93.80;;;;;;5009203;28;20211;-65
2022/09/25 11:51:42;;;;;;;5.28;1.40;;;27.90;93.60;;;;;;5004657;28;20185;-66
2022/09/25 11:54:34;;;;;;;4.50;1.45;;;27.90;92.50;;;;;;5007036;28;20878;-66
2022/09/25 11:57:18;;;;;;;3.95;1.40;;;27.80;94.00;;;;;;5008712;28;20239;-65
2022/09/25 12:00:13;;;;;;;2.38;1.40;;;27.90;94.70;;;;;;5008181;28;20193;-66
2022/09/25 12:02:50;;;;;;;4.95;1.30;;;27.90;93.60;;;;;;4992378;28;20199;-65
2022/09/25 12:05:49;;;;;;;6.22;1.40;;;27.80;94.10;;;;;;4974907;28;20185;-66
2022/09/25 12:08:47;;;;;;;6.03;1.40;;;27.80;94.10;;;;;;4996398;28;20192;-66
2022/09/25 12:12:01;;;;;;;3.08;1.23;;;27.80;94.30;;;;;;4993955;28;20271;-65
2022/09/25 12:14:59;;;;;;;5.32;1.40;;;27.60;95.70;;;;;;5008406;28;20196;-66
2022/09/25 12:18:25;;;;;;;4.05;1.42;;;27.60;96.20;;;;;;5006701;28;20563;-66
2022/09/25 12:21:05;;;;;;;2.53;1.23;;;27.60;97.70;;;;;;4929884;29;20187;-65
2022/09/25 12:23:50;;;;;;;2.22;1.20;;;27.60;97.60;;;;;;4982599;28;20287;-66
2022/09/25 12:26:28;;;;;;;4.72;1.65;;;27.50;94.50;;;;;;5014787;28;20658;-65
2022/09/25 12:29:27;;;;;;;3.28;1.40;;;27.50;95.40;;;;;;4988346;28;20659;-65
2022/09/25 12:32:25;;;;;;;4.13;1.45;;;27.40;94.90;;;;;;5000369;28;20197;-66
2022/09/25 12:35:38;;;;;;;2.95;1.20;;;27.40;96.50;;;;;;4991826;28;20593;-65
2022/09/25 12:38:27;;;;;;;7.65;1.50;;;27.40;96.90;;;;;;5005370;28;20189;-65
2022/09/25 12:41:06;;;;;;;4.03;1.52;;;27.40;96.10;;;;;;5009272;28;20208;-65
2022/09/25 12:44:05;;;;;;;4.18;1.42;;;27.40;93.70;;;;;;5010063;28;20288;-65
2022/09/25 12:46:58;;;;;;;3.17;1.40;;;27.40;95.20;;;;;;5007375;28;20228;-65
2022/09/25 12:49:53;;;;;;;4.00;1.85;;;27.40;95.70;;;;;;5009626;28;20197;-65
2022/09/25 12:52:36;;;;;;;3.28;1.30;;;27.40;97.50;;;;;;5005187;28;20280;-65
2022/09/25 12:55:22;;;;;;;2.38;1.50;;;27.30;95.20;;;;;;5000322;28;20230;-65
2022/09/25 12:58:07;;;;;;;5.78;1.60;;;27.20;93.30;;;;;;5012257;28;20223;-65
2022/09/25 13:00:40;;;;;;;4.97;1.55;;;27.20;93.50;;;;;;5008849;28;20204;-65
2022/09/25 13:03:37;;;;;;;3.55;1.60;;;27.20;94.30;;;;;;4985804;28;20251;-65
2022/09/25 13:06:47;;;;;;;4.60;1.50;;;27.20;92.90;;;;;;4999085;28;20304;-65
2022/09/25 13:09:48;;;;;;;4.70;1.60;;;27.20;93.60;;;;;;5007712;28;20192;-65
2022/09/25 13:12:33;;;;;;;9.55;1.80;;;27.20;94.10;;;;;;4939668;29;20331;-65
2022/09/25 13:15:10;;;;;;;6.28;1.80;;;27.20;92.90;;;;;;4998924;28;20209;-66
2022/09/25 13:17:38;;;;;;;2.63;1.40;;;27.10;92.60;;;;;;5004205;28;20195;-65
2022/09/25 13:20:26;;;;;;;8.50;1.50;;;27.00;91.80;;;;;;5013218;28;20212;-65
2022/09/25 13:23:29;;;;;;;2.97;1.42;;;27.00;91.00;;;;;;5012489;28;20204;-66
2022/09/25 13:26:13;;;;;;;7.75;1.50;;;26.90;92.60;;;;;;5007389;28;20188;-66
2022/09/25 13:28:51;;;;;;;2.55;1.40;;;26.90;91.30;;;;;;4994068;28;20192;-66
2022/09/25 13:31:28;;;;;;;4.30;1.40;;;26.90;91.90;;;;;;5000492;28;20192;-66
2022/09/25 13:34:00;;;;;;;2.70;1.52;;;26.80;91.80;;;;;;5007825;28;20291;-66
2022/09/25 13:36:46;;;;;;;2.35;1.30;;;26.80;92.70;;;;;;5013077;28;20220;-66
2022/09/25 13:42:30;;;;;;;4.13;1.55;;;26.80;93.20;;;;;;5015001;28;20209;-66
2022/09/25 13:45:21;;;;;;;7.90;1.70;;;26.90;93.10;;;;;;5012771;28;20324;-66
2022/09/25 13:48:14;;;;;;;8.95;1.40;;;26.80;91.20;;;;;;4979025;28;20192;-67
2022/09/25 13:50:49;;;;;;;1.92;1.70;;;26.80;91.20;;;;;;4995559;28;20356;-66
2022/09/25 13:53:26;;;;;;;2.15;1.55;;;26.70;93.90;;;;;;5002930;28;20215;-66
2022/09/25 13:55:56;;;;;;;6.82;1.45;;;26.60;94.40;;;;;;5004671;28;20180;-66
2022/09/25 13:58:28;;;;;;;9.15;1.67;;;26.50;90.60;;;;;;5012442;28;20189;-66
2022/09/25 14:00:57;;;;;;;4.57;1.60;;;26.40;93.60;;;;;;4996746;28;20717;-66
2022/09/25 14:03:42;;;;;;;4.25;1.60;;;26.40;94.80;;;;;;5010569;28;20244;-66
2022/09/25 14:06:31;;;;;;;2.03;1.60;;;26.30;94.00;;;;;;4991797;28;20232;-66
2022/09/25 14:09:07;;;;;;;5.55;1.60;;;26.30;94.60;;;;;;5014753;28;20193;-66
2022/09/25 14:11:37;;;;;;;2.88;1.50;;;26.30;94.30;;;;;;5012218;28;20195;-67